sensor_id;sensor_type;location;lat;lon;timestamp;P1;durP1;ratioP1;P2;durP2;ratioP2
68214;SDS011;55036;52.138;5.236;2023-03-16T00:02:03;7.32;;;4.35;;
68214;SDS011;55036;52.138;5.236;2023-03-16T00:04:30;7.28;;;3.75;;
68214;SDS011;55036;52.138;5.236;2023-03-16T00:06:57;6.13;;;3.90;;
68214;SDS011;55036;52.138;5.236;2023-03-16T00:09:24;7.95;;;4.13;;
68214;SDS011;55036;52.138;5.236;2023-03-16T00:14:29;8.75;;;4.03;;
68214;SDS011;55036;52.138;5.236;2023-03-16T00:16:56;7.63;;;4.10;;
68214;SDS011;55036;52.138;5.236;2023-03-16T00:19:23;6.00;;;3.70;;
68214;SDS011;55036;52.138;5.236;2023-03-16T00:21:50;8.52;;;3.65;;
68214;SDS011;55036;52.138;5.236;2023-03-16T00:24:18;7.35;;;4.00;;
68214;SDS011;55036;52.138;5.236;2023-03-16T00:26:45;5.65;;;3.80;;
68214;SDS011;55036;52.138;5.236;2023-03-16T00:29:13;7.55;;;4.20;;
68214;SDS011;55036;52.138;5.236;2023-03-16T00:31:40;7.22;;;4.15;;
68214;SDS011;55036;52.138;5.236;2023-03-16T00:34:10;7.25;;;4.10;;
68214;SDS011;55036;52.138;5.236;2023-03-16T00:36:37;8.43;;;4.40;;
68214;SDS011;55036;52.138;5.236;2023-03-16T00:39:04;7.80;;;4.68;;
68214;SDS011;55036;52.138;5.236;2023-03-16T00:41:31;6.85;;;4.18;;
68214;SDS011;55036;52.138;5.236;2023-03-16T00:44:03;10.18;;;4.40;;
68214;SDS011;55036;52.138;5.236;2023-03-16T00:46:30;6.32;;;4.68;;
68214;SDS011;55036;52.138;5.236;2023-03-16T00:48:57;6.05;;;4.15;;
68214;SDS011;55036;52.138;5.236;2023-03-16T00:51:24;8.02;;;4.25;;
68214;SDS011;55036;52.138;5.236;2023-03-16T00:53:51;7.18;;;4.13;;
68214;SDS011;55036;52.138;5.236;2023-03-16T00:56:17;8.80;;;4.40;;
68214;SDS011;55036;52.138;5.236;2023-03-16T00:58:44;9.52;;;4.18;;
68214;SDS011;55036;52.138;5.236;2023-03-16T01:01:12;7.60;;;4.63;;
68214;SDS011;55036;52.138;5.236;2023-03-16T01:03:41;8.10;;;4.57;;
68214;SDS011;55036;52.138;5.236;2023-03-16T01:06:10;9.43;;;4.80;;
68214;SDS011;55036;52.138;5.236;2023-03-16T01:08:38;7.95;;;4.90;;
68214;SDS011;55036;52.138;5.236;2023-03-16T01:11:06;7.28;;;4.40;;
68214;SDS011;55036;52.138;5.236;2023-03-16T01:13:36;9.40;;;4.72;;
68214;SDS011;55036;52.138;5.236;2023-03-16T01:16:04;7.03;;;4.72;;
68214;SDS011;55036;52.138;5.236;2023-03-16T01:18:31;7.78;;;4.93;;
68214;SDS011;55036;52.138;5.236;2023-03-16T01:21:02;7.85;;;4.68;;
68214;SDS011;55036;52.138;5.236;2023-03-16T01:23:30;7.90;;;4.38;;
68214;SDS011;55036;52.138;5.236;2023-03-16T01:25:57;6.57;;;4.00;;
68214;SDS011;55036;52.138;5.236;2023-03-16T01:28:25;5.60;;;4.47;;
68214;SDS011;55036;52.138;5.236;2023-03-16T01:30:54;7.22;;;4.60;;
68214;SDS011;55036;52.138;5.236;2023-03-16T01:33:25;8.38;;;4.35;;
68214;SDS011;55036;52.138;5.236;2023-03-16T01:35:57;7.32;;;4.38;;
68214;SDS011;55036;52.138;5.236;2023-03-16T01:38:27;7.05;;;4.47;;
68214;SDS011;55036;52.138;5.236;2023-03-16T01:40:54;8.00;;;4.70;;
68214;SDS011;55036;52.138;5.236;2023-03-16T01:43:22;8.10;;;4.93;;
68214;SDS011;55036;52.138;5.236;2023-03-16T01:48:23;6.05;;;4.63;;
68214;SDS011;55036;52.138;5.236;2023-03-16T01:50:51;9.15;;;5.10;;
68214;SDS011;55036;52.138;5.236;2023-03-16T01:53:19;7.32;;;5.05;;
68214;SDS011;55036;52.138;5.236;2023-03-16T01:55:47;7.68;;;4.82;;
68214;SDS011;55036;52.138;5.236;2023-03-16T01:58:16;6.65;;;4.88;;
68214;SDS011;55036;52.138;5.236;2023-03-16T02:00:43;9.10;;;4.80;;
68214;SDS011;55036;52.138;5.236;2023-03-16T02:03:12;10.68;;;4.30;;
68214;SDS011;55036;52.138;5.236;2023-03-16T02:05:52;6.40;;;4.50;;
68214;SDS011;55036;52.138;5.236;2023-03-16T02:08:22;9.73;;;5.40;;
68214;SDS011;55036;52.138;5.236;2023-03-16T02:10:50;7.30;;;4.82;;
68214;SDS011;55036;52.138;5.236;2023-03-16T02:13:20;6.30;;;4.65;;
68214;SDS011;55036;52.138;5.236;2023-03-16T02:15:50;6.47;;;4.63;;
68214;SDS011;55036;52.138;5.236;2023-03-16T02:18:17;10.30;;;4.90;;
68214;SDS011;55036;52.138;5.236;2023-03-16T02:23:18;9.43;;;4.47;;
68214;SDS011;55036;52.138;5.236;2023-03-16T02:28:33;7.90;;;4.15;;
68214;SDS011;55036;52.138;5.236;2023-03-16T02:31:01;7.78;;;4.68;;
68214;SDS011;55036;52.138;5.236;2023-03-16T02:33:29;8.23;;;5.30;;
68214;SDS011;55036;52.138;5.236;2023-03-16T02:35:58;7.35;;;4.70;;
68214;SDS011;55036;52.138;5.236;2023-03-16T02:38:25;7.80;;;4.82;;
68214;SDS011;55036;52.138;5.236;2023-03-16T02:40:56;6.03;;;4.80;;
68214;SDS011;55036;52.138;5.236;2023-03-16T02:43:35;7.35;;;4.93;;
68214;SDS011;55036;52.138;5.236;2023-03-16T02:46:05;10.82;;;5.10;;
68214;SDS011;55036;52.138;5.236;2023-03-16T02:48:45;6.75;;;4.60;;
68214;SDS011;55036;52.138;5.236;2023-03-16T02:51:42;7.78;;;5.18;;
68214;SDS011;55036;52.138;5.236;2023-03-16T02:54:10;6.47;;;4.55;;
68214;SDS011;55036;52.138;5.236;2023-03-16T02:56:38;8.20;;;5.07;;
68214;SDS011;55036;52.138;5.236;2023-03-16T02:59:05;6.97;;;4.32;;
68214;SDS011;55036;52.138;5.236;2023-03-16T03:01:31;8.05;;;4.88;;
68214;SDS011;55036;52.138;5.236;2023-03-16T03:04:00;6.95;;;4.82;;
68214;SDS011;55036;52.138;5.236;2023-03-16T03:06:27;6.10;;;4.40;;
68214;SDS011;55036;52.138;5.236;2023-03-16T03:08:55;10.52;;;5.13;;
68214;SDS011;55036;52.138;5.236;2023-03-16T03:11:22;7.07;;;4.70;;
68214;SDS011;55036;52.138;5.236;2023-03-16T03:13:48;9.00;;;4.72;;
68214;SDS011;55036;52.138;5.236;2023-03-16T03:16:16;8.68;;;4.80;;
68214;SDS011;55036;52.138;5.236;2023-03-16T03:18:42;6.75;;;4.70;;
68214;SDS011;55036;52.138;5.236;2023-03-16T03:21:09;7.05;;;4.53;;
68214;SDS011;55036;52.138;5.236;2023-03-16T03:23:36;10.10;;;5.18;;
68214;SDS011;55036;52.138;5.236;2023-03-16T03:26:03;8.52;;;5.00;;
68214;SDS011;55036;52.138;5.236;2023-03-16T03:28:30;8.93;;;4.72;;
68214;SDS011;55036;52.138;5.236;2023-03-16T03:30:59;7.53;;;5.00;;
68214;SDS011;55036;52.138;5.236;2023-03-16T03:33:26;7.68;;;5.03;;
68214;SDS011;55036;52.138;5.236;2023-03-16T03:35:54;9.48;;;5.35;;
68214;SDS011;55036;52.138;5.236;2023-03-16T03:38:23;8.80;;;4.90;;
68214;SDS011;55036;52.138;5.236;2023-03-16T03:40:50;6.57;;;5.00;;
68214;SDS011;55036;52.138;5.236;2023-03-16T03:43:18;7.30;;;5.20;;
68214;SDS011;55036;52.138;5.236;2023-03-16T03:45:46;7.90;;;4.70;;
68214;SDS011;55036;52.138;5.236;2023-03-16T03:48:13;7.57;;;5.20;;
68214;SDS011;55036;52.138;5.236;2023-03-16T03:50:40;6.65;;;4.90;;
68214;SDS011;55036;52.138;5.236;2023-03-16T03:53:06;7.25;;;5.00;;
68214;SDS011;55036;52.138;5.236;2023-03-16T03:55:33;9.60;;;5.10;;
68214;SDS011;55036;52.138;5.236;2023-03-16T03:58:00;7.72;;;5.47;;
68214;SDS011;55036;52.138;5.236;2023-03-16T04:00:27;6.38;;;4.78;;
68214;SDS011;55036;52.138;5.236;2023-03-16T04:02:54;8.02;;;5.40;;
68214;SDS011;55036;52.138;5.236;2023-03-16T04:05:21;9.20;;;5.07;;
68214;SDS011;55036;52.138;5.236;2023-03-16T04:07:47;9.98;;;5.47;;
68214;SDS011;55036;52.138;5.236;2023-03-16T04:10:15;12.63;;;6.05;;
68214;SDS011;55036;52.138;5.236;2023-03-16T04:12:42;8.13;;;5.20;;
68214;SDS011;55036;52.138;5.236;2023-03-16T04:15:09;11.50;;;5.47;;
68214;SDS011;55036;52.138;5.236;2023-03-16T04:17:37;9.75;;;5.63;;
68214;SDS011;55036;52.138;5.236;2023-03-16T04:20:04;8.75;;;5.57;;
68214;SDS011;55036;52.138;5.236;2023-03-16T04:22:37;8.60;;;5.57;;
68214;SDS011;55036;52.138;5.236;2023-03-16T04:25:04;8.40;;;4.88;;
68214;SDS011;55036;52.138;5.236;2023-03-16T04:27:31;8.07;;;4.78;;
68214;SDS011;55036;52.138;5.236;2023-03-16T04:30:05;7.72;;;5.07;;
68214;SDS011;55036;52.138;5.236;2023-03-16T04:32:36;10.18;;;5.25;;
68214;SDS011;55036;52.138;5.236;2023-03-16T04:35:03;9.63;;;5.50;;
68214;SDS011;55036;52.138;5.236;2023-03-16T04:37:30;10.18;;;5.55;;
68214;SDS011;55036;52.138;5.236;2023-03-16T04:39:57;8.43;;;5.32;;
68214;SDS011;55036;52.138;5.236;2023-03-16T04:42:24;8.55;;;5.45;;
68214;SDS011;55036;52.138;5.236;2023-03-16T04:44:50;7.93;;;4.72;;
68214;SDS011;55036;52.138;5.236;2023-03-16T04:47:17;9.88;;;5.63;;
68214;SDS011;55036;52.138;5.236;2023-03-16T04:49:44;8.32;;;4.72;;
68214;SDS011;55036;52.138;5.236;2023-03-16T04:52:11;6.63;;;4.70;;
68214;SDS011;55036;52.138;5.236;2023-03-16T04:54:38;9.73;;;5.05;;
68214;SDS011;55036;52.138;5.236;2023-03-16T04:57:04;8.82;;;4.72;;
68214;SDS011;55036;52.138;5.236;2023-03-16T04:59:31;10.25;;;4.85;;
68214;SDS011;55036;52.138;5.236;2023-03-16T05:01:58;11.77;;;5.13;;
68214;SDS011;55036;52.138;5.236;2023-03-16T05:04:24;7.90;;;4.85;;
68214;SDS011;55036;52.138;5.236;2023-03-16T05:06:51;7.38;;;5.03;;
68214;SDS011;55036;52.138;5.236;2023-03-16T05:09:18;6.38;;;4.03;;
68214;SDS011;55036;52.138;5.236;2023-03-16T05:11:45;8.02;;;5.13;;
68214;SDS011;55036;52.138;5.236;2023-03-16T05:14:12;6.78;;;4.95;;
68214;SDS011;55036;52.138;5.236;2023-03-16T05:16:39;7.95;;;4.70;;
68214;SDS011;55036;52.138;5.236;2023-03-16T05:19:07;8.73;;;5.10;;
68214;SDS011;55036;52.138;5.236;2023-03-16T05:21:33;8.27;;;4.50;;
68214;SDS011;55036;52.138;5.236;2023-03-16T05:24:05;9.43;;;5.25;;
68214;SDS011;55036;52.138;5.236;2023-03-16T05:26:33;8.30;;;5.00;;
68214;SDS011;55036;52.138;5.236;2023-03-16T05:28:59;7.85;;;4.47;;
68214;SDS011;55036;52.138;5.236;2023-03-16T05:31:27;7.07;;;4.28;;
68214;SDS011;55036;52.138;5.236;2023-03-16T05:33:57;8.43;;;4.55;;
68214;SDS011;55036;52.138;5.236;2023-03-16T05:36:24;7.65;;;4.70;;
68214;SDS011;55036;52.138;5.236;2023-03-16T05:38:51;9.02;;;4.95;;
68214;SDS011;55036;52.138;5.236;2023-03-16T05:41:18;7.80;;;4.90;;
68214;SDS011;55036;52.138;5.236;2023-03-16T05:43:46;8.13;;;4.75;;
68214;SDS011;55036;52.138;5.236;2023-03-16T05:46:13;8.32;;;4.60;;
68214;SDS011;55036;52.138;5.236;2023-03-16T05:48:40;7.97;;;4.88;;
68214;SDS011;55036;52.138;5.236;2023-03-16T05:51:06;9.07;;;4.63;;
68214;SDS011;55036;52.138;5.236;2023-03-16T05:53:33;8.98;;;4.85;;
68214;SDS011;55036;52.138;5.236;2023-03-16T05:56:00;6.60;;;4.75;;
68214;SDS011;55036;52.138;5.236;2023-03-16T05:58:27;6.85;;;4.25;;
68214;SDS011;55036;52.138;5.236;2023-03-16T06:00:54;6.28;;;4.10;;
68214;SDS011;55036;52.138;5.236;2023-03-16T06:03:24;10.05;;;4.70;;
68214;SDS011;55036;52.138;5.236;2023-03-16T06:05:51;8.93;;;4.75;;
68214;SDS011;55036;52.138;5.236;2023-03-16T06:08:17;7.63;;;4.53;;
68214;SDS011;55036;52.138;5.236;2023-03-16T06:10:47;6.72;;;4.35;;
68214;SDS011;55036;52.138;5.236;2023-03-16T06:13:14;8.65;;;3.95;;
68214;SDS011;55036;52.138;5.236;2023-03-16T06:15:40;7.20;;;3.97;;
68214;SDS011;55036;52.138;5.236;2023-03-16T06:18:09;7.63;;;4.63;;
68214;SDS011;55036;52.138;5.236;2023-03-16T06:20:36;7.50;;;4.70;;
68214;SDS011;55036;52.138;5.236;2023-03-16T06:23:02;7.60;;;4.43;;
68214;SDS011;55036;52.138;5.236;2023-03-16T06:25:29;10.20;;;4.43;;
68214;SDS011;55036;52.138;5.236;2023-03-16T06:27:56;8.15;;;4.25;;
68214;SDS011;55036;52.138;5.236;2023-03-16T06:30:23;6.72;;;3.90;;
68214;SDS011;55036;52.138;5.236;2023-03-16T06:32:49;7.82;;;4.15;;
68214;SDS011;55036;52.138;5.236;2023-03-16T06:35:17;5.93;;;3.90;;
68214;SDS011;55036;52.138;5.236;2023-03-16T06:37:44;7.32;;;4.20;;
68214;SDS011;55036;52.138;5.236;2023-03-16T06:40:10;9.68;;;4.63;;
68214;SDS011;55036;52.138;5.236;2023-03-16T06:42:38;7.43;;;4.57;;
68214;SDS011;55036;52.138;5.236;2023-03-16T06:45:05;6.90;;;3.92;;
68214;SDS011;55036;52.138;5.236;2023-03-16T06:47:32;8.55;;;3.92;;
68214;SDS011;55036;52.138;5.236;2023-03-16T06:49:59;7.22;;;4.50;;
68214;SDS011;55036;52.138;5.236;2023-03-16T06:52:26;7.97;;;4.13;;
68214;SDS011;55036;52.138;5.236;2023-03-16T06:54:52;7.85;;;3.47;;
68214;SDS011;55036;52.138;5.236;2023-03-16T06:57:19;7.25;;;3.15;;
68214;SDS011;55036;52.138;5.236;2023-03-16T06:59:46;6.85;;;3.53;;
68214;SDS011;55036;52.138;5.236;2023-03-16T07:02:13;7.05;;;3.30;;
68214;SDS011;55036;52.138;5.236;2023-03-16T07:04:40;6.90;;;3.72;;
68214;SDS011;55036;52.138;5.236;2023-03-16T07:07:07;9.20;;;3.85;;
68214;SDS011;55036;52.138;5.236;2023-03-16T07:09:34;7.65;;;3.72;;
68214;SDS011;55036;52.138;5.236;2023-03-16T07:12:05;7.47;;;3.60;;
68214;SDS011;55036;52.138;5.236;2023-03-16T07:14:32;5.85;;;3.70;;
68214;SDS011;55036;52.138;5.236;2023-03-16T07:16:59;6.68;;;4.15;;
68214;SDS011;55036;52.138;5.236;2023-03-16T07:19:27;8.35;;;4.00;;
68214;SDS011;55036;52.138;5.236;2023-03-16T07:21:54;7.95;;;3.97;;
68214;SDS011;55036;52.138;5.236;2023-03-16T07:24:20;9.23;;;3.80;;
68214;SDS011;55036;52.138;5.236;2023-03-16T07:26:47;7.47;;;3.67;;
68214;SDS011;55036;52.138;5.236;2023-03-16T07:29:14;8.77;;;3.85;;
68214;SDS011;55036;52.138;5.236;2023-03-16T07:31:42;7.45;;;3.70;;
68214;SDS011;55036;52.138;5.236;2023-03-16T07:34:09;6.55;;;3.50;;
68214;SDS011;55036;52.138;5.236;2023-03-16T07:36:36;9.38;;;3.88;;
68214;SDS011;55036;52.138;5.236;2023-03-16T07:39:03;7.97;;;3.85;;
68214;SDS011;55036;52.138;5.236;2023-03-16T07:41:31;8.32;;;3.47;;
68214;SDS011;55036;52.138;5.236;2023-03-16T07:43:58;5.47;;;3.47;;
68214;SDS011;55036;52.138;5.236;2023-03-16T07:46:24;5.35;;;3.33;;
68214;SDS011;55036;52.138;5.236;2023-03-16T07:48:51;5.90;;;3.60;;
68214;SDS011;55036;52.138;5.236;2023-03-16T07:51:18;7.50;;;3.92;;
68214;SDS011;55036;52.138;5.236;2023-03-16T07:53:45;7.90;;;4.35;;
68214;SDS011;55036;52.138;5.236;2023-03-16T07:56:12;6.10;;;3.90;;
68214;SDS011;55036;52.138;5.236;2023-03-16T07:58:38;7.93;;;3.63;;
68214;SDS011;55036;52.138;5.236;2023-03-16T08:01:05;6.45;;;3.85;;
68214;SDS011;55036;52.138;5.236;2023-03-16T08:03:32;8.30;;;3.78;;
68214;SDS011;55036;52.138;5.236;2023-03-16T08:05:58;7.45;;;3.95;;
68214;SDS011;55036;52.138;5.236;2023-03-16T08:08:25;5.65;;;3.67;;
68214;SDS011;55036;52.138;5.236;2023-03-16T08:10:52;6.75;;;4.57;;
68214;SDS011;55036;52.138;5.236;2023-03-16T08:13:21;8.85;;;3.78;;
68214;SDS011;55036;52.138;5.236;2023-03-16T08:15:48;6.75;;;3.53;;
68214;SDS011;55036;52.138;5.236;2023-03-16T08:18:24;6.18;;;3.72;;
68214;SDS011;55036;52.138;5.236;2023-03-16T08:20:51;4.95;;;3.42;;
68214;SDS011;55036;52.138;5.236;2023-03-16T08:23:18;7.22;;;3.60;;
68214;SDS011;55036;52.138;5.236;2023-03-16T08:25:46;6.63;;;4.13;;
68214;SDS011;55036;52.138;5.236;2023-03-16T08:28:16;4.57;;;3.50;;
68214;SDS011;55036;52.138;5.236;2023-03-16T08:30:46;7.45;;;3.95;;
68214;SDS011;55036;52.138;5.236;2023-03-16T08:33:16;9.40;;;4.32;;
68214;SDS011;55036;52.138;5.236;2023-03-16T08:38:14;5.90;;;3.40;;
68214;SDS011;55036;52.138;5.236;2023-03-16T08:40:41;12.05;;;4.82;;
68214;SDS011;55036;52.138;5.236;2023-03-16T08:43:16;9.52;;;3.38;;
68214;SDS011;55036;52.138;5.236;2023-03-16T08:45:44;5.78;;;3.00;;
68214;SDS011;55036;52.138;5.236;2023-03-16T08:48:11;6.47;;;3.58;;
68214;SDS011;55036;52.138;5.236;2023-03-16T08:50:40;8.18;;;3.72;;
68214;SDS011;55036;52.138;5.236;2023-03-16T08:53:08;5.50;;;3.28;;
68214;SDS011;55036;52.138;5.236;2023-03-16T08:55:37;6.97;;;3.38;;
68214;SDS011;55036;52.138;5.236;2023-03-16T08:58:03;5.53;;;3.30;;
68214;SDS011;55036;52.138;5.236;2023-03-16T09:00:30;6.25;;;3.63;;
68214;SDS011;55036;52.138;5.236;2023-03-16T09:02:57;7.25;;;3.17;;
68214;SDS011;55036;52.138;5.236;2023-03-16T09:05:24;8.35;;;3.38;;
68214;SDS011;55036;52.138;5.236;2023-03-16T09:07:51;5.43;;;3.58;;
68214;SDS011;55036;52.138;5.236;2023-03-16T09:10:19;4.03;;;2.70;;
68214;SDS011;55036;52.138;5.236;2023-03-16T09:12:48;4.97;;;2.97;;
68214;SDS011;55036;52.138;5.236;2023-03-16T09:15:17;5.68;;;3.47;;
68214;SDS011;55036;52.138;5.236;2023-03-16T09:17:46;4.45;;;3.13;;
68214;SDS011;55036;52.138;5.236;2023-03-16T09:20:14;5.68;;;3.03;;
68214;SDS011;55036;52.138;5.236;2023-03-16T09:22:54;5.88;;;3.05;;
68214;SDS011;55036;52.138;5.236;2023-03-16T09:25:22;7.88;;;3.28;;
68214;SDS011;55036;52.138;5.236;2023-03-16T09:27:50;5.07;;;2.75;;
68214;SDS011;55036;52.138;5.236;2023-03-16T09:30:17;8.23;;;3.50;;
68214;SDS011;55036;52.138;5.236;2023-03-16T09:32:44;4.25;;;3.05;;
68214;SDS011;55036;52.138;5.236;2023-03-16T09:35:14;4.22;;;2.75;;
68214;SDS011;55036;52.138;5.236;2023-03-16T09:37:40;6.50;;;3.75;;
68214;SDS011;55036;52.138;5.236;2023-03-16T09:40:22;5.35;;;3.22;;
68214;SDS011;55036;52.138;5.236;2023-03-16T09:48:38;6.65;;;3.58;;
68214;SDS011;55036;52.138;5.236;2023-03-16T09:51:07;7.63;;;3.97;;
68214;SDS011;55036;52.138;5.236;2023-03-16T09:53:45;4.97;;;2.60;;
68214;SDS011;55036;52.138;5.236;2023-03-16T09:56:21;5.57;;;2.90;;
68214;SDS011;55036;52.138;5.236;2023-03-16T09:59:09;7.35;;;3.75;;
68214;SDS011;55036;52.138;5.236;2023-03-16T10:01:48;6.93;;;3.15;;
68214;SDS011;55036;52.138;5.236;2023-03-16T10:07:35;5.32;;;2.88;;
68214;SDS011;55036;52.138;5.236;2023-03-16T10:10:48;7.10;;;3.10;;
68214;SDS011;55036;52.138;5.236;2023-03-16T10:15:57;5.28;;;3.13;;
68214;SDS011;55036;52.138;5.236;2023-03-16T10:18:28;5.13;;;2.95;;
68214;SDS011;55036;52.138;5.236;2023-03-16T10:21:01;7.68;;;3.47;;
68214;SDS011;55036;52.138;5.236;2023-03-16T10:23:28;6.18;;;3.05;;
68214;SDS011;55036;52.138;5.236;2023-03-16T10:25:59;5.45;;;3.75;;
68214;SDS011;55036;52.138;5.236;2023-03-16T10:28:34;5.28;;;2.50;;
68214;SDS011;55036;52.138;5.236;2023-03-16T10:31:03;5.63;;;2.55;;
68214;SDS011;55036;52.138;5.236;2023-03-16T10:33:30;5.80;;;3.15;;
68214;SDS011;55036;52.138;5.236;2023-03-16T10:36:01;4.60;;;3.08;;
68214;SDS011;55036;52.138;5.236;2023-03-16T10:43:45;6.50;;;2.83;;
68214;SDS011;55036;52.138;5.236;2023-03-16T10:48:51;5.00;;;2.53;;
68214;SDS011;55036;52.138;5.236;2023-03-16T10:51:26;5.05;;;2.60;;
68214;SDS011;55036;52.138;5.236;2023-03-16T10:54:05;4.65;;;2.75;;
68214;SDS011;55036;52.138;5.236;2023-03-16T10:56:39;4.45;;;2.55;;
68214;SDS011;55036;52.138;5.236;2023-03-16T11:02:16;6.07;;;2.72;;
68214;SDS011;55036;52.138;5.236;2023-03-16T11:04:45;4.93;;;2.42;;
68214;SDS011;55036;52.138;5.236;2023-03-16T11:07:16;4.15;;;2.60;;
68214;SDS011;55036;52.138;5.236;2023-03-16T11:09:44;4.03;;;2.65;;
68214;SDS011;55036;52.138;5.236;2023-03-16T11:12:13;4.38;;;2.13;;
68214;SDS011;55036;52.138;5.236;2023-03-16T11:14:51;6.15;;;3.00;;
68214;SDS011;55036;52.138;5.236;2023-03-16T11:17:35;6.20;;;3.05;;
68214;SDS011;55036;52.138;5.236;2023-03-16T11:20:08;6.18;;;2.50;;
68214;SDS011;55036;52.138;5.236;2023-03-16T11:22:45;5.78;;;2.90;;
68214;SDS011;55036;52.138;5.236;2023-03-16T11:25:16;4.10;;;2.42;;
68214;SDS011;55036;52.138;5.236;2023-03-16T11:27:54;4.38;;;2.42;;
68214;SDS011;55036;52.138;5.236;2023-03-16T11:30:41;4.32;;;2.40;;
68214;SDS011;55036;52.138;5.236;2023-03-16T11:33:16;2.92;;;2.03;;
68214;SDS011;55036;52.138;5.236;2023-03-16T11:35:50;3.70;;;2.40;;
68214;SDS011;55036;52.138;5.236;2023-03-16T11:38:28;6.10;;;2.30;;
68214;SDS011;55036;52.138;5.236;2023-03-16T11:41:11;7.22;;;2.28;;
68214;SDS011;55036;52.138;5.236;2023-03-16T11:43:54;4.28;;;2.08;;
68214;SDS011;55036;52.138;5.236;2023-03-16T12:11:02;2.15;;;1.50;;
68214;SDS011;55036;52.138;5.236;2023-03-16T12:16:55;3.70;;;1.50;;
68214;SDS011;55036;52.138;5.236;2023-03-16T12:20:11;3.63;;;1.35;;
68214;SDS011;55036;52.138;5.236;2023-03-16T12:22:34;3.95;;;1.58;;
68214;SDS011;55036;52.138;5.236;2023-03-16T12:25:05;7.63;;;1.65;;
68214;SDS011;55036;52.138;5.236;2023-03-16T12:27:41;3.78;;;1.50;;
68214;SDS011;55036;52.138;5.236;2023-03-16T12:31:11;3.92;;;1.45;;
68214;SDS011;55036;52.138;5.236;2023-03-16T12:36:36;4.20;;;1.60;;
68214;SDS011;55036;52.138;5.236;2023-03-16T12:45:12;4.18;;;1.40;;
68214;SDS011;55036;52.138;5.236;2023-03-16T12:50:46;3.17;;;1.30;;
68214;SDS011;55036;52.138;5.236;2023-03-16T12:53:37;2.83;;;1.38;;
68214;SDS011;55036;52.138;5.236;2023-03-16T12:56:17;1.75;;;0.90;;
68214;SDS011;55036;52.138;5.236;2023-03-16T12:58:47;5.03;;;1.30;;
68214;SDS011;55036;52.138;5.236;2023-03-16T13:01:17;5.85;;;1.40;;
68214;SDS011;55036;52.138;5.236;2023-03-16T13:03:46;1.73;;;1.20;;
68214;SDS011;55036;52.138;5.236;2023-03-16T13:06:16;1.80;;;1.20;;
68214;SDS011;55036;52.138;5.236;2023-03-16T13:08:46;2.15;;;1.08;;
68214;SDS011;55036;52.138;5.236;2023-03-16T13:11:17;3.83;;;1.23;;
68214;SDS011;55036;52.138;5.236;2023-03-16T13:13:49;3.30;;;1.30;;
68214;SDS011;55036;52.138;5.236;2023-03-16T13:16:30;4.25;;;1.30;;
68214;SDS011;55036;52.138;5.236;2023-03-16T13:18:58;3.10;;;1.23;;
68214;SDS011;55036;52.138;5.236;2023-03-16T13:26:48;1.95;;;0.98;;
68214;SDS011;55036;52.138;5.236;2023-03-16T13:31:48;3.45;;;1.30;;
68214;SDS011;55036;52.138;5.236;2023-03-16T13:34:21;3.30;;;1.00;;
68214;SDS011;55036;52.138;5.236;2023-03-16T13:36:56;5.28;;;1.30;;
68214;SDS011;55036;52.138;5.236;2023-03-16T13:39:25;6.63;;;1.00;;
68214;SDS011;55036;52.138;5.236;2023-03-16T13:44:26;3.55;;;1.15;;
68214;SDS011;55036;52.138;5.236;2023-03-16T13:46:54;5.47;;;1.48;;
68214;SDS011;55036;52.138;5.236;2023-03-16T13:49:21;3.78;;;1.35;;
68214;SDS011;55036;52.138;5.236;2023-03-16T13:51:48;2.58;;;0.88;;
68214;SDS011;55036;52.138;5.236;2023-03-16T13:54:18;3.70;;;0.80;;
68214;SDS011;55036;52.138;5.236;2023-03-16T13:56:57;2.75;;;1.00;;
68214;SDS011;55036;52.138;5.236;2023-03-16T13:59:28;3.55;;;1.10;;
68214;SDS011;55036;52.138;5.236;2023-03-16T14:01:55;5.43;;;1.33;;
68214;SDS011;55036;52.138;5.236;2023-03-16T14:04:26;1.77;;;1.17;;
68214;SDS011;55036;52.138;5.236;2023-03-16T14:06:58;3.05;;;1.08;;
68214;SDS011;55036;52.138;5.236;2023-03-16T14:09:27;2.80;;;0.77;;
68214;SDS011;55036;52.138;5.236;2023-03-16T14:11:57;4.47;;;0.88;;
68214;SDS011;55036;52.138;5.236;2023-03-16T14:14:25;1.10;;;0.90;;
68214;SDS011;55036;52.138;5.236;2023-03-16T14:17:02;3.63;;;1.02;;
68214;SDS011;55036;52.138;5.236;2023-03-16T14:19:37;1.63;;;1.00;;
68214;SDS011;55036;52.138;5.236;2023-03-16T14:22:21;3.07;;;1.07;;
68214;SDS011;55036;52.138;5.236;2023-03-16T14:24:56;2.90;;;0.93;;
68214;SDS011;55036;52.138;5.236;2023-03-16T14:30:25;4.95;;;1.25;;
68214;SDS011;55036;52.138;5.236;2023-03-16T14:35:53;2.70;;;0.85;;
68214;SDS011;55036;52.138;5.236;2023-03-16T14:38:25;2.08;;;1.13;;
68214;SDS011;55036;52.138;5.236;2023-03-16T14:40:56;3.00;;;1.48;;
68214;SDS011;55036;52.138;5.236;2023-03-16T14:43:29;3.33;;;1.10;;
68214;SDS011;55036;52.138;5.236;2023-03-16T14:45:59;3.05;;;1.00;;
68214;SDS011;55036;52.138;5.236;2023-03-16T14:48:28;1.77;;;0.80;;
68214;SDS011;55036;52.138;5.236;2023-03-16T14:50:59;2.22;;;0.88;;
68214;SDS011;55036;52.138;5.236;2023-03-16T14:53:27;2.40;;;0.90;;
68214;SDS011;55036;52.138;5.236;2023-03-16T14:55:55;2.20;;;0.88;;
68214;SDS011;55036;52.138;5.236;2023-03-16T14:58:23;3.45;;;0.90;;
68214;SDS011;55036;52.138;5.236;2023-03-16T15:00:50;1.40;;;1.00;;
68214;SDS011;55036;52.138;5.236;2023-03-16T15:03:19;4.05;;;0.70;;
68214;SDS011;55036;52.138;5.236;2023-03-16T15:05:49;5.28;;;1.08;;
68214;SDS011;55036;52.138;5.236;2023-03-16T15:08:24;2.80;;;1.10;;
68214;SDS011;55036;52.138;5.236;2023-03-16T15:10:56;3.72;;;0.85;;
68214;SDS011;55036;52.138;5.236;2023-03-16T15:13:26;2.55;;;1.20;;
68214;SDS011;55036;52.138;5.236;2023-03-16T15:16:13;2.78;;;1.15;;
68214;SDS011;55036;52.138;5.236;2023-03-16T15:18:40;3.47;;;1.42;;
68214;SDS011;55036;52.138;5.236;2023-03-16T15:21:11;1.48;;;0.73;;
68214;SDS011;55036;52.138;5.236;2023-03-16T15:23:43;2.20;;;0.90;;
68214;SDS011;55036;52.138;5.236;2023-03-16T15:26:10;2.33;;;1.00;;
68214;SDS011;55036;52.138;5.236;2023-03-16T15:28:38;2.85;;;1.10;;
68214;SDS011;55036;52.138;5.236;2023-03-16T15:31:05;3.90;;;0.90;;
68214;SDS011;55036;52.138;5.236;2023-03-16T15:33:32;2.33;;;0.93;;
68214;SDS011;55036;52.138;5.236;2023-03-16T15:35:59;3.13;;;1.17;;
68214;SDS011;55036;52.138;5.236;2023-03-16T15:38:32;1.90;;;1.17;;
68214;SDS011;55036;52.138;5.236;2023-03-16T15:41:01;2.78;;;0.90;;
68214;SDS011;55036;52.138;5.236;2023-03-16T15:43:29;4.20;;;0.88;;
68214;SDS011;55036;52.138;5.236;2023-03-16T15:45:57;6.22;;;1.08;;
68214;SDS011;55036;52.138;5.236;2023-03-16T15:48:25;1.25;;;0.70;;
68214;SDS011;55036;52.138;5.236;2023-03-16T15:50:53;1.70;;;0.65;;
68214;SDS011;55036;52.138;5.236;2023-03-16T15:53:26;1.65;;;0.90;;
68214;SDS011;55036;52.138;5.236;2023-03-16T15:56:01;2.78;;;0.80;;
68214;SDS011;55036;52.138;5.236;2023-03-16T15:58:31;3.65;;;0.75;;
68214;SDS011;55036;52.138;5.236;2023-03-16T16:00:59;3.03;;;0.70;;
68214;SDS011;55036;52.138;5.236;2023-03-16T16:03:28;2.88;;;0.68;;
68214;SDS011;55036;52.138;5.236;2023-03-16T16:05:54;2.90;;;0.98;;
68214;SDS011;55036;52.138;5.236;2023-03-16T16:08:21;3.78;;;0.90;;
68214;SDS011;55036;52.138;5.236;2023-03-16T16:10:48;1.27;;;0.75;;
68214;SDS011;55036;52.138;5.236;2023-03-16T16:16:10;0.60;;;0.55;;
68214;SDS011;55036;52.138;5.236;2023-03-16T16:18:38;2.85;;;0.95;;
68214;SDS011;55036;52.138;5.236;2023-03-16T16:21:06;1.38;;;0.77;;
68214;SDS011;55036;52.138;5.236;2023-03-16T16:23:39;2.60;;;0.73;;
68214;SDS011;55036;52.138;5.236;2023-03-16T16:26:07;3.53;;;0.70;;
68214;SDS011;55036;52.138;5.236;2023-03-16T16:28:45;3.47;;;0.90;;
68214;SDS011;55036;52.138;5.236;2023-03-16T16:31:12;2.00;;;0.90;;
68214;SDS011;55036;52.138;5.236;2023-03-16T16:33:39;4.20;;;1.10;;
68214;SDS011;55036;52.138;5.236;2023-03-16T16:36:09;3.40;;;1.08;;
68214;SDS011;55036;52.138;5.236;2023-03-16T16:38:46;3.67;;;1.00;;